Terminal Aerodrome Forecast
Issued by NWS Kansas City/Pleasant Hill, MO

Home | Current Version | Previous Version | Text Only | Print | Product List | Glossary On
Versions: 1 2 3 4 5 6 7 8 9 10 11 12 13 14 15 16 17 18
000
FTUS43 KEAX 070526
TAFMCI
TAF
KMCI 070526Z 0706/0806 01009KT 6SM -SHRA BR OVC011
      TEMPO 0706/0708 4SM BR BKN004
     FM070900 01012KT 5SM BR OVC025
     FM071200 01012G19KT P6SM OVC070=

USA.gov is the U.S. government's official web portal to all federal, state and local government web resources and services.